createdAt,value
2019-01-11T00:00:02.100Z,96.54
2019-01-11T00:05:01.397Z,99.09
2019-01-11T00:10:01.639Z,99.09
2019-01-11T00:15:02.134Z,98.36
2019-01-11T00:20:03.992Z,98.32
2019-01-11T00:25:01.275Z,96.73
2019-01-11T00:30:01.565Z,96.4
2019-01-11T00:35:01.865Z,98.4
2019-01-11T00:40:02.182Z,98.53
2019-01-11T00:45:01.444Z,98.21
2019-01-11T00:50:01.746Z,96.7
2019-01-11T00:55:01.996Z,98.36
2019-01-11T01:00:01.316Z,98.36
2019-01-11T01:05:01.628Z,98.34
2019-01-11T01:10:01.870Z,98.5
2019-01-11T01:15:02.111Z,98.58
2019-01-11T01:20:01.377Z,98.62
2019-01-11T01:25:01.632Z,98.6
2019-01-11T01:30:01.893Z,98.55
2019-01-11T01:35:02.198Z,98.55
2019-01-11T01:40:01.432Z,98.58
2019-01-11T01:45:01.719Z,98.66
2019-01-11T01:50:01.969Z,98.59
2019-01-11T01:55:01.288Z,98.57
2019-01-11T02:00:01.601Z,98.66
2019-01-11T02:05:01.301Z,98.6
2019-01-11T02:10:01.678Z,98.56
2019-01-11T02:15:01.476Z,98.64
2019-01-11T02:20:01.735Z,96.78
2019-01-11T02:25:01.994Z,96.84
2019-01-11T02:30:01.253Z,96.67
2019-01-11T02:35:01.632Z,96.67
2019-01-11T02:40:01.901Z,96.67
2019-01-11T02:45:01.200Z,96.6
2019-01-11T02:50:01.507Z,96.6
2019-01-11T02:55:01.850Z,96.31
2019-01-11T03:00:02.154Z,98.55
2019-01-11T03:05:01.474Z,98.15
2019-01-11T03:10:01.779Z,96.33
2019-01-11T03:15:02.136Z,98.24
2019-01-11T03:20:01.532Z,98.39
2019-01-11T03:25:01.802Z,98.2
2019-01-11T03:30:02.150Z,96.42
2019-01-11T03:35:01.447Z,98.43
2019-01-11T03:40:01.869Z,99.21
2019-01-11T03:45:02.090Z,96.47
2019-01-11T03:50:01.411Z,96.43
2019-01-11T03:55:01.449Z,98.54
2019-01-11T04:00:01.733Z,98.24
2019-01-11T04:05:01.990Z,98.47
2019-01-11T04:10:01.295Z,98.34
2019-01-11T04:15:01.599Z,98.32
2019-01-11T04:20:02.685Z,98.37
2019-01-11T04:25:02.034Z,96.59
2019-01-11T04:30:01.386Z,96.48
2019-01-11T04:35:01.683Z,96.65
2019-01-11T04:40:01.951Z,96.59
2019-01-11T04:45:01.334Z,96.61
2019-01-11T04:50:01.602Z,96.41
2019-01-11T04:55:01.442Z,96.66
2019-01-11T05:00:01.766Z,96.61
2019-01-11T05:05:02.135Z,96.73
2019-01-11T05:10:01.394Z,98.64
2019-01-11T05:15:01.736Z,98.82
2019-01-11T05:20:02.013Z,98.9
2019-01-11T05:25:01.279Z,98.65
2019-01-11T05:30:01.524Z,98.67
2019-01-11T05:35:01.919Z,98.66
2019-01-11T05:40:01.986Z,98.79
2019-01-11T05:45:01.251Z,98.64
2019-01-11T05:50:01.577Z,98.7
2019-01-11T05:55:01.863Z,98.73
2019-01-11T06:00:02.156Z,98.73
2019-01-11T06:05:01.453Z,98.71
2019-01-11T06:10:03.262Z,98.79
2019-01-11T06:15:01.489Z,98.89
2019-01-11T06:20:01.864Z,98.91
2019-01-11T06:25:02.145Z,98.91
2019-01-11T06:30:01.413Z,98.94
2019-01-11T06:35:01.741Z,97.23
2019-01-11T06:40:02.041Z,97.5
2019-01-11T06:45:01.310Z,97.43
2019-01-11T06:50:01.582Z,97.45
2019-01-11T06:55:01.874Z,97.34
2019-01-11T07:00:02.136Z,97.4
2019-01-11T07:05:01.381Z,97.36
2019-01-11T07:10:01.637Z,97.57
2019-01-11T07:15:01.931Z,99.32
2019-01-11T07:20:05.918Z,99.57
2019-01-11T07:25:01.214Z,99.37
2019-01-11T07:30:01.498Z,99.5
2019-01-11T07:35:01.826Z,99.35
2019-01-11T07:40:02.104Z,99.49
2019-01-11T07:45:01.369Z,99.5
2019-01-11T07:50:01.622Z,99.54
2019-01-11T07:55:01.904Z,99.71
2019-01-11T08:00:02.172Z,99.59
2019-01-11T08:05:01.418Z,99.59
2019-01-11T08:10:01.679Z,99.56
2019-01-11T08:15:01.962Z,99.72
2019-01-11T08:20:01.252Z,99.69
2019-01-11T08:25:01.622Z,99.92
2019-01-11T08:30:01.924Z,99.83
2019-01-11T08:35:01.226Z,99.83
2019-01-11T08:40:01.663Z,98.03
2019-01-11T08:45:01.974Z,98.01
2019-01-11T08:50:01.230Z,97.98
2019-01-11T08:55:01.534Z,98.05
2019-01-11T09:00:01.866Z,98.06
2019-01-11T09:05:02.129Z,98.09
2019-01-11T09:10:01.403Z,98.2
2019-01-11T09:15:01.689Z,99.77
2019-01-11T09:20:02.002Z,99.79
2019-01-11T09:25:01.252Z,98.18
2019-01-11T09:30:01.539Z,99.74
2019-01-11T09:35:01.810Z,98.27
2019-01-11T09:40:02.078Z,98.15
2019-01-11T09:45:01.348Z,99.96
2019-01-11T09:50:01.634Z,100
2019-01-11T09:55:01.914Z,98.49
2019-01-11T10:00:01.340Z,98.52
2019-01-11T10:05:01.617Z,98.63
2019-01-11T10:10:01.879Z,98.12
2019-01-11T10:15:02.179Z,100.15
2019-01-11T10:20:01.454Z,100.2
2019-01-11T10:25:01.729Z,98.66
2019-01-11T10:30:02.071Z,98.69
2019-01-11T10:35:01.374Z,98.63
2019-01-11T10:40:01.643Z,100.25
2019-01-11T10:45:01.928Z,98.72
2019-01-11T10:50:01.200Z,100.31
2019-01-11T10:55:01.516Z,98.1
2019-01-11T11:00:01.789Z,98.24
2019-01-11T11:05:02.075Z,98.21
2019-01-11T11:10:01.342Z,98.63
2019-01-11T11:15:01.653Z,98.18
2019-01-11T11:20:01.961Z,98.23
2019-01-11T11:25:01.222Z,98.32
2019-01-11T11:30:01.515Z,100.26
2019-01-11T11:35:01.844Z,98.18
2019-01-11T11:40:02.082Z,98.37
2019-01-11T11:45:01.404Z,98.75
2019-01-11T11:50:01.699Z,98.31
2019-01-11T11:55:02.043Z,98.24
2019-01-11T12:00:01.315Z,98.17
2019-01-11T12:05:01.570Z,98.41
2019-01-11T12:10:01.841Z,98.31
2019-01-11T12:15:02.155Z,98.11
2019-01-11T12:20:01.422Z,98.41
2019-01-11T12:25:01.717Z,98.28
2019-01-11T12:30:01.979Z,98.31
2019-01-11T12:35:01.280Z,98.9
2019-01-11T12:40:01.540Z,98.27
2019-01-11T12:45:01.809Z,98.27
2019-01-11T12:50:02.038Z,98.3
2019-01-11T12:55:01.364Z,98.28
2019-01-11T13:00:01.648Z,98.25
2019-01-11T13:05:01.918Z,98.59
2019-01-11T13:10:01.206Z,98.32
2019-01-11T13:15:01.492Z,98.4
2019-01-11T13:20:01.792Z,98.55
2019-01-11T13:25:02.053Z,98.56
2019-01-11T13:30:01.319Z,98.43
2019-01-11T13:35:01.620Z,98.4
2019-01-11T13:40:01.887Z,98.32
2019-01-11T13:45:02.165Z,98.41
2019-01-11T13:50:01.413Z,98.51
2019-01-11T13:55:01.704Z,98.52
2019-01-11T14:00:01.989Z,98.52
2019-01-11T14:05:01.367Z,98.63
2019-01-11T14:10:01.658Z,98.57
2019-01-11T14:15:01.928Z,98.63
2019-01-11T14:20:01.364Z,98.61
2019-01-11T14:25:01.737Z,98.63
2019-01-11T14:30:02.001Z,98.71
2019-01-11T14:35:01.397Z,98.6
2019-01-11T14:40:01.755Z,98.63
2019-01-11T14:45:02.065Z,98.62
2019-01-11T14:50:01.410Z,98.64
2019-01-11T14:55:01.929Z,98.6
2019-01-11T15:00:01.207Z,98.51
2019-01-11T15:05:01.618Z,98.61
2019-01-11T15:10:01.917Z,98.55
2019-01-11T15:15:01.177Z,98.42
2019-01-11T15:20:01.481Z,98.52
2019-01-11T15:25:01.799Z,98.62
2019-01-11T15:30:02.126Z,98.66
2019-01-11T15:35:01.423Z,98.57
2019-01-11T15:40:01.715Z,98.6
2019-01-11T15:45:02.047Z,98.56
2019-01-11T15:50:01.320Z,98.46
2019-01-11T15:55:01.622Z,98.58
2019-01-11T16:00:01.931Z,98.53
2019-01-11T16:05:01.307Z,98.53
2019-01-11T16:10:01.617Z,98.5
2019-01-11T16:15:01.924Z,98.49
2019-01-11T16:20:01.219Z,98.6
2019-01-11T16:25:01.476Z,98.43
2019-01-11T16:30:01.718Z,98.53
2019-01-11T16:35:01.985Z,98.6
2019-01-11T16:40:01.246Z,98.51
2019-01-11T16:45:01.574Z,98.63
2019-01-11T16:50:01.862Z,98.75
2019-01-11T16:55:02.114Z,98.81
2019-01-11T17:00:01.380Z,98.84
2019-01-11T17:05:01.720Z,98.78
2019-01-11T17:10:01.994Z,98.79
2019-01-11T17:15:01.266Z,98.89
2019-01-11T17:20:01.548Z,99.01
2019-01-11T17:25:01.834Z,99.02
2019-01-11T17:30:02.098Z,98.9
2019-01-11T17:35:01.363Z,98.84
2019-01-11T17:40:01.658Z,98.82
2019-01-11T17:45:01.951Z,98.82
2019-01-11T17:50:01.783Z,98.87
2019-01-11T17:55:02.059Z,98.72
2019-01-11T18:00:01.334Z,98.81
2019-01-11T18:05:01.642Z,98.78
2019-01-11T18:10:01.901Z,98.72
2019-01-11T18:15:01.193Z,98.63
2019-01-11T18:20:01.563Z,98.57
2019-01-11T18:25:01.853Z,98.53
2019-01-11T18:30:02.123Z,98.61
2019-01-11T18:35:01.390Z,98.43
2019-01-11T18:40:01.639Z,98.45
2019-01-11T18:45:01.974Z,98.55
2019-01-11T18:50:01.238Z,98.54
2019-01-11T18:55:01.523Z,98.79
2019-01-11T19:00:01.797Z,98.69
2019-01-11T19:05:02.061Z,98.71
2019-01-11T19:10:01.321Z,98.65
2019-01-11T19:15:01.611Z,98.69
2019-01-11T19:20:01.907Z,98.76
2019-01-11T19:25:01.215Z,98.73
2019-01-11T19:30:01.531Z,98.67
2019-01-11T19:35:01.853Z,98.5
2019-01-11T19:40:02.135Z,98.69
2019-01-11T19:45:01.459Z,98.71
2019-01-11T19:50:01.744Z,98.74
2019-01-11T19:55:02.119Z,98.75
2019-01-11T20:00:01.423Z,98.8
2019-01-11T20:05:01.689Z,98.6
2019-01-11T20:10:01.965Z,98.63
2019-01-11T20:15:01.283Z,98.6
2019-01-11T20:20:01.619Z,98.6
2019-01-11T20:25:01.908Z,98.49
2019-01-11T20:30:02.128Z,98.54
2019-01-11T20:35:01.415Z,98.8
2019-01-11T20:40:01.719Z,98.69
2019-01-11T20:45:01.985Z,98.65
2019-01-11T20:50:01.261Z,98.63
2019-01-11T20:55:01.558Z,98.5
2019-01-11T21:00:01.909Z,98.48
2019-01-11T21:05:01.195Z,98.44
2019-01-11T21:10:01.503Z,98.6
2019-01-11T21:15:01.996Z,98.47
2019-01-11T21:20:01.314Z,98.54
2019-01-11T21:25:01.662Z,98.53
2019-01-11T21:30:01.952Z,98.6
2019-01-11T21:35:01.308Z,98.69
2019-01-11T21:40:01.593Z,98.7
2019-01-11T21:45:01.980Z,98.6
2019-01-11T21:50:01.334Z,98.7
2019-01-11T21:55:01.657Z,98.63
2019-01-11T22:00:02.074Z,98.48
2019-01-11T22:05:01.351Z,98.35
2019-01-11T22:10:01.653Z,98.39
2019-01-11T22:15:02.003Z,98.36
2019-01-11T22:20:01.280Z,98.41
2019-01-11T22:25:01.578Z,98.43
2019-01-11T22:30:01.872Z,98.5
2019-01-11T22:35:02.156Z,98.55
2019-01-11T22:40:01.428Z,98.6
2019-01-11T22:45:01.733Z,98.77
2019-01-11T22:50:02.036Z,98.59
2019-01-11T22:55:01.308Z,98.76
2019-01-11T23:00:01.598Z,98.84
2019-01-11T23:05:01.883Z,98.79
2019-01-11T23:10:02.157Z,98.73
2019-01-11T23:15:01.419Z,98.88
2019-01-11T23:20:01.719Z,98.82
2019-01-11T23:25:01.983Z,98.92
2019-01-11T23:30:01.311Z,98.93
2019-01-11T23:35:01.607Z,99.01
2019-01-11T23:40:01.897Z,98.88
2019-01-11T23:45:02.164Z,98.86
2019-01-11T23:50:01.420Z,98.85
2019-01-11T23:55:01.682Z,98.66
